Main page
METAR-TAF:

METAR-TAF

Airports :

Bandar Lengeh, Iran

Bandar Lengeh Airport

latitude: 26-35N, longitude: 054-50E, elevation: 14 m

Current weather observation

The report was made 2 hours and 30 minutes ago, at 18:00 UTC
Wind 6 kt from the West
Temperature 31°C
Humidity 38%
Pressure 1008 hPa
Visibility: 5000 m
haze

METAR: OIBL 301800Z 28006KT 5000 HZ NSC 31/15 Q1008

Time: 01:00 (20:30 UTC)


TAF: missing

Weather observations and forecasts of more than 4000 airports (METAR and TAF reports).

The available stations are represented by yellow and red dots on the map.

Hover mouse over dot to see the name of the station.

Then click to see weather observations and forecasts.

To change the map : click on the green buttons with a black cross to zoom in, on the green button with a dash to zoom out, or on the green arrows for adjacent maps.


METAR-TAF: